Time;durP1;ratioP1;P1;durP2;ratioP2;P2;SDS_P1;SDS_P2;PMS_P1;PMS_P2;Temp;Humidity;BMP_temperature;BMP_pressure;BME280_temperature;BME280_humidity;BME280_pressure;Samples;Min_cycle;Max_cycle;Signal;HPM_P1;HPM_P2
2022/06/25 00:01:26;;;;;;;;;23.25;20.25;;;;;;;;5021388;28;51569;-57
2022/06/25 00:07:13;;;;;;;;;20.00;18.25;;;;;;;;5021068;28;51209;-57
2022/06/25 00:09:58;;;;;;;;;25.00;20.50;;;;;;;;5021421;28;51157;-57
2022/06/25 00:12:43;;;;;;;;;24.50;19.75;;;;;;;;5021018;28;51067;-57
2022/06/25 00:15:27;;;;;;;;;21.50;19.00;;;;;;;;5018118;28;51131;-58
2022/06/25 00:18:11;;;;;;;;;21.25;18.00;;;;;;;;5021080;28;51510;-58
2022/06/25 00:20:56;;;;;;;;;19.75;17.00;;;;;;;;5019713;28;51161;-58
2022/06/25 00:23:40;;;;;;;;;18.50;16.00;;;;;;;;5021264;28;51165;-57
2022/06/25 00:26:24;;;;;;;;;23.75;19.50;;;;;;;;5021265;28;51024;-58
2022/06/25 00:29:10;;;;;;;;;22.25;19.75;;;;;;;;5021035;28;51072;-58
2022/06/25 00:31:54;;;;;;;;;21.00;16.25;;;;;;;;5020853;28;51086;-58
2022/06/25 00:34:38;;;;;;;;;19.25;18.50;;;;;;;;5021406;28;51154;-56
2022/06/25 00:37:22;;;;;;;;;18.75;16.25;;;;;;;;5015360;28;51118;-57
2022/06/25 00:40:08;;;;;;;;;22.25;19.25;;;;;;;;5019584;28;51086;-56
2022/06/25 00:42:52;;;;;;;;;23.75;18.50;;;;;;;;5020976;28;51525;-58
2022/06/25 00:45:36;;;;;;;;;24.25;20.50;;;;;;;;5020635;28;51042;-58
2022/06/25 00:48:20;;;;;;;;;22.75;19.50;;;;;;;;5021078;28;51295;-57
2022/06/25 00:51:09;;;;;;;;;17.25;16.25;;;;;;;;5020690;28;51180;-58
2022/06/25 00:53:56;;;;;;;;;18.50;15.25;;;;;;;;5020687;28;51146;-57
2022/06/25 00:56:46;;;;;;;;;17.25;16.00;;;;;;;;5020645;28;51155;-57
2022/06/25 00:59:33;;;;;;;;;25.50;16.75;;;;;;;;5013062;28;51224;-57
2022/06/25 01:02:20;;;;;;;;;18.00;17.50;;;;;;;;5018677;28;51366;-57
2022/06/25 01:05:08;;;;;;;;;21.25;19.00;;;;;;;;5019024;28;51221;-58
2022/06/25 01:07:53;;;;;;;;;19.00;17.25;;;;;;;;5020146;28;51504;-58
2022/06/25 01:10:37;;;;;;;;;24.50;17.50;;;;;;;;5020479;28;51133;-58
2022/06/25 01:13:22;;;;;;;;;20.75;17.25;;;;;;;;5017922;28;51149;-57
2022/06/25 01:16:06;;;;;;;;;15.75;15.75;;;;;;;;5019342;28;51162;-59
2022/06/25 01:18:50;;;;;;;;;21.00;15.50;;;;;;;;5020198;28;51664;-57
2022/06/25 01:21:35;;;;;;;;;18.00;16.00;;;;;;;;5003866;28;51069;-58
2022/06/25 01:24:20;;;;;;;;;21.00;17.25;;;;;;;;5019731;28;51243;-59
2022/06/25 01:27:16;;;;;;;;;15.75;14.50;;;;;;;;5019604;28;51184;-57
2022/06/25 01:30:00;;;;;;;;;18.00;16.25;;;;;;;;5019623;28;51075;-57
2022/06/25 01:32:45;;;;;;;;;21.25;16.50;;;;;;;;5019252;28;51455;-57
2022/06/25 01:35:29;;;;;;;;;18.50;17.25;;;;;;;;5019180;28;51132;-58
2022/06/25 01:38:13;;;;;;;;;17.75;14.00;;;;;;;;5019730;28;51085;-58
2022/06/25 01:40:58;;;;;;;;;20.50;17.00;;;;;;;;5019153;28;51410;-58
2022/06/25 01:43:42;;;;;;;;;16.25;16.00;;;;;;;;5018981;28;51643;-58
2022/06/25 01:46:27;;;;;;;;;21.00;17.25;;;;;;;;5019149;28;51072;-58
2022/06/25 01:49:12;;;;;;;;;18.25;15.75;;;;;;;;5019731;28;51097;-58
2022/06/25 01:51:56;;;;;;;;;26.50;19.25;;;;;;;;5018883;28;51512;-57
2022/06/25 01:54:40;;;;;;;;;20.75;17.75;;;;;;;;5019489;28;51219;-58
2022/06/25 01:57:25;;;;;;;;;18.75;18.50;;;;;;;;5019192;28;51499;-58
2022/06/25 02:00:11;;;;;;;;;30.25;18.00;;;;;;;;5019151;28;51045;-58
2022/06/25 02:02:55;;;;;;;;;21.00;18.00;;;;;;;;5014111;28;51104;-58
2022/06/25 02:05:57;;;;;;;;;23.00;19.50;;;;;;;;5019030;28;51119;-58
2022/06/25 02:08:42;;;;;;;;;23.50;20.00;;;;;;;;5017395;28;51056;-58
2022/06/25 02:11:26;;;;;;;;;23.75;20.50;;;;;;;;5013737;28;51075;-58
2022/06/25 02:14:10;;;;;;;;;22.00;21.00;;;;;;;;5019123;28;51195;-58
2022/06/25 02:16:55;;;;;;;;;21.75;20.25;;;;;;;;5018778;28;51069;-58
2022/06/25 02:19:40;;;;;;;;;21.50;21.25;;;;;;;;5017719;28;51098;-58
2022/06/25 02:22:24;;;;;;;;;18.50;17.50;;;;;;;;5018886;28;51513;-57
2022/06/25 02:25:08;;;;;;;;;25.75;21.00;;;;;;;;5018424;28;51149;-57
2022/06/25 02:27:53;;;;;;;;;28.00;22.50;;;;;;;;5004171;28;51157;-58
2022/06/25 02:30:37;;;;;;;;;23.00;20.00;;;;;;;;5018895;28;51516;-57
2022/06/25 02:33:22;;;;;;;;;23.25;19.75;;;;;;;;5017727;28;52793;-58
2022/06/25 02:36:06;;;;;;;;;18.00;15.00;;;;;;;;5017461;28;51088;-57
2022/06/25 02:38:50;;;;;;;;;22.00;18.50;;;;;;;;5019341;28;51034;-58
2022/06/25 02:41:35;;;;;;;;;24.00;20.75;;;;;;;;5018660;28;51006;-58
2022/06/25 02:44:19;;;;;;;;;19.75;19.75;;;;;;;;5018748;28;51173;-56
2022/06/25 02:47:04;;;;;;;;;18.25;16.25;;;;;;;;5019056;28;51026;-58
2022/06/25 02:49:48;;;;;;;;;20.00;17.25;;;;;;;;5018823;28;51251;-57
2022/06/25 02:52:33;;;;;;;;;19.00;16.50;;;;;;;;5018911;28;51470;-58
2022/06/25 02:55:17;;;;;;;;;20.50;19.75;;;;;;;;5018581;28;51149;-58
2022/06/25 03:01:04;;;;;;;;;19.00;17.00;;;;;;;;5018669;28;51270;-57
2022/06/25 03:03:49;;;;;;;;;18.75;16.25;;;;;;;;5019337;28;51925;-57
2022/06/25 03:06:33;;;;;;;;;23.25;19.50;;;;;;;;5018511;28;51356;-58
2022/06/25 03:09:18;;;;;;;;;20.00;17.25;;;;;;;;5018706;28;51180;-58
2022/06/25 03:12:03;;;;;;;;;21.25;19.00;;;;;;;;5018647;28;51127;-58
2022/06/25 03:14:47;;;;;;;;;23.50;19.25;;;;;;;;5018651;28;51157;-59
2022/06/25 03:17:31;;;;;;;;;22.25;21.75;;;;;;;;5018932;28;51168;-58
2022/06/25 03:20:16;;;;;;;;;22.00;19.00;;;;;;;;5012424;28;51233;-58
2022/06/25 03:23:00;;;;;;;;;19.75;16.25;;;;;;;;5017422;28;51160;-58
2022/06/25 03:25:45;;;;;;;;;22.75;19.00;;;;;;;;5018488;28;51035;-58
2022/06/25 03:28:29;;;;;;;;;26.50;21.50;;;;;;;;5018762;28;51077;-58
2022/06/25 03:31:13;;;;;;;;;21.50;19.50;;;;;;;;5018458;28;51190;-57
2022/06/25 03:33:57;;;;;;;;;22.00;19.00;;;;;;;;5018626;28;51055;-58
2022/06/25 03:36:42;;;;;;;;;21.75;19.00;;;;;;;;5021720;28;51523;-59
2022/06/25 03:39:26;;;;;;;;;29.00;20.50;;;;;;;;5019352;28;51541;-59
2022/06/25 03:42:11;;;;;;;;;27.00;24.75;;;;;;;;5022547;28;51075;-58
2022/06/25 03:44:55;;;;;;;;;26.25;19.25;;;;;;;;5022065;28;51101;-58
2022/06/25 03:47:40;;;;;;;;;23.25;20.75;;;;;;;;5021825;28;50980;-59
2022/06/25 03:50:24;;;;;;;;;25.50;21.00;;;;;;;;5021914;28;51039;-58
2022/06/25 03:53:08;;;;;;;;;24.50;20.00;;;;;;;;5022229;28;51093;-59
2022/06/25 03:55:53;;;;;;;;;20.75;20.75;;;;;;;;5004777;28;51408;-57
2022/06/25 03:58:37;;;;;;;;;22.00;19.75;;;;;;;;5021917;28;51160;-58
2022/06/25 04:01:23;;;;;;;;;24.50;20.50;;;;;;;;5021828;28;51470;-58
2022/06/25 04:04:07;;;;;;;;;28.75;22.50;;;;;;;;5021724;28;51055;-58
2022/06/25 04:06:52;;;;;;;;;21.00;19.75;;;;;;;;5021719;28;50963;-58
2022/06/25 04:09:36;;;;;;;;;19.00;17.25;;;;;;;;5021578;28;51477;-58
2022/06/25 04:12:21;;;;;;;;;28.50;19.00;;;;;;;;5021555;28;51412;-58
2022/06/25 04:15:05;;;;;;;;;22.75;18.50;;;;;;;;5021421;28;51043;-58
2022/06/25 04:17:49;;;;;;;;;20.75;18.25;;;;;;;;5021651;28;51140;-57
2022/06/25 04:20:34;;;;;;;;;20.25;18.50;;;;;;;;4997838;28;51448;-59
2022/06/25 04:23:18;;;;;;;;;18.50;18.00;;;;;;;;5020224;28;51273;-57
2022/06/25 04:26:03;;;;;;;;;19.75;16.75;;;;;;;;5020580;28;51660;-59
2022/06/25 04:29:05;;;;;;;;;22.00;19.50;;;;;;;;5020863;28;51162;-58
2022/06/25 04:31:49;;;;;;;;;24.75;18.00;;;;;;;;5014839;28;51339;-58
2022/06/25 04:34:33;;;;;;;;;19.75;17.00;;;;;;;;5025119;28;51106;-58
2022/06/25 04:37:18;;;;;;;;;19.25;16.25;;;;;;;;5023674;28;51527;-58
2022/06/25 04:40:02;;;;;;;;;24.25;20.25;;;;;;;;5022834;28;51233;-58
2022/06/25 04:42:47;;;;;;;;;25.75;22.50;;;;;;;;5019976;28;51089;-58
2022/06/25 04:45:31;;;;;;;;;18.25;13.75;;;;;;;;5020677;28;51068;-58
2022/06/25 04:48:16;;;;;;;;;22.00;20.00;;;;;;;;5019900;28;51323;-57
2022/06/25 04:51:00;;;;;;;;;22.75;21.50;;;;;;;;5020721;28;51460;-57
2022/06/25 04:53:56;;;;;;;;;26.00;20.50;;;;;;;;5020560;28;51239;-58
2022/06/25 04:56:41;;;;;;;;;19.75;19.00;;;;;;;;5020758;28;51144;-58
2022/06/25 04:59:25;;;;;;;;;25.75;22.25;;;;;;;;5020397;28;51173;-57
2022/06/25 05:02:09;;;;;;;;;28.25;23.00;;;;;;;;5020785;28;51532;-57
2022/06/25 05:04:54;;;;;;;;;26.25;24.25;;;;;;;;5020214;28;51082;-58
2022/06/25 05:07:38;;;;;;;;;29.25;23.25;;;;;;;;5020591;28;51187;-58
2022/06/25 05:10:23;;;;;;;;;29.25;23.00;;;;;;;;5020073;28;51569;-58
2022/06/25 05:13:13;;;;;;;;;24.00;21.00;;;;;;;;5019997;28;51171;-58
2022/06/25 05:15:57;;;;;;;;;28.75;24.50;;;;;;;;5020308;28;51572;-57
2022/06/25 05:18:41;;;;;;;;;27.50;21.25;;;;;;;;5019801;28;51096;-55
2022/06/25 05:21:26;;;;;;;;;30.25;26.25;;;;;;;;5013131;28;51868;-58
2022/06/25 05:24:10;;;;;;;;;30.50;28.00;;;;;;;;5018601;28;51144;-58
2022/06/25 05:26:55;;;;;;;;;36.00;31.25;;;;;;;;5019344;28;51556;-58
2022/06/25 05:29:40;;;;;;;;;36.75;30.25;;;;;;;;5016975;28;51170;-57
2022/06/25 05:32:24;;;;;;;;;43.25;33.50;;;;;;;;5019680;28;51150;-59
2022/06/25 05:35:08;;;;;;;;;36.75;32.00;;;;;;;;5019106;28;51147;-58
2022/06/25 05:37:53;;;;;;;;;43.25;33.25;;;;;;;;5019085;28;51392;-58
2022/06/25 05:40:37;;;;;;;;;42.50;32.00;;;;;;;;5019301;28;51106;-58
2022/06/25 05:43:24;;;;;;;;;34.00;30.50;;;;;;;;5019121;28;51010;-57
2022/06/25 05:46:09;;;;;;;;;41.00;32.00;;;;;;;;5019144;28;51161;-58
2022/06/25 05:48:53;;;;;;;;;36.50;31.50;;;;;;;;5019289;28;51145;-58
2022/06/25 05:51:38;;;;;;;;;47.25;35.00;;;;;;;;5019208;28;51018;-59
2022/06/25 05:54:22;;;;;;;;;39.50;33.50;;;;;;;;5016015;28;51095;-57
2022/06/25 05:57:07;;;;;;;;;44.25;32.50;;;;;;;;5019236;28;51101;-56
2022/06/25 05:59:51;;;;;;;;;38.25;32.00;;;;;;;;5019041;28;51054;-57
2022/06/25 06:02:35;;;;;;;;;42.25;33.00;;;;;;;;5018839;28;51046;-57
2022/06/25 06:05:20;;;;;;;;;48.75;38.25;;;;;;;;5019094;28;51118;-57
2022/06/25 06:08:05;;;;;;;;;38.50;31.75;;;;;;;;5018753;28;51129;-58
2022/06/25 06:10:49;;;;;;;;;46.75;35.75;;;;;;;;5019206;28;51081;-58
2022/06/25 06:13:34;;;;;;;;;45.50;36.00;;;;;;;;5014661;28;51055;-57
2022/06/25 06:16:18;;;;;;;;;43.25;33.25;;;;;;;;5018977;28;51605;-58
2022/06/25 06:19:02;;;;;;;;;44.00;34.75;;;;;;;;5018490;28;50998;-58
2022/06/25 06:21:47;;;;;;;;;35.50;32.00;;;;;;;;5018902;28;51080;-58
2022/06/25 06:24:31;;;;;;;;;37.50;31.75;;;;;;;;5018424;28;51133;-58
2022/06/25 06:27:16;;;;;;;;;42.00;32.75;;;;;;;;5018343;28;51334;-57
2022/06/25 06:30:00;;;;;;;;;35.00;29.25;;;;;;;;5018462;28;51575;-58
2022/06/25 06:32:46;;;;;;;;;37.75;32.25;;;;;;;;5018263;28;51204;-56
2022/06/25 06:35:30;;;;;;;;;33.75;29.50;;;;;;;;5003763;28;51075;-58
2022/06/25 06:38:14;;;;;;;;;45.00;35.25;;;;;;;;5018788;28;51105;-57
2022/06/25 06:40:59;;;;;;;;;46.50;36.00;;;;;;;;5018751;28;51126;-58
2022/06/25 06:43:43;;;;;;;;;48.75;38.75;;;;;;;;5018066;28;51107;-57
2022/06/25 06:46:28;;;;;;;;;44.00;35.00;;;;;;;;5018603;28;51222;-57
2022/06/25 06:49:12;;;;;;;;;48.75;38.75;;;;;;;;5018502;28;51063;-58
2022/06/25 06:51:57;;;;;;;;;47.50;37.00;;;;;;;;5017486;28;51121;-57
2022/06/25 06:54:41;;;;;;;;;40.00;34.00;;;;;;;;5012286;28;51539;-58
2022/06/25 06:57:26;;;;;;;;;43.50;35.00;;;;;;;;5017885;28;51157;-58
2022/06/25 07:00:10;;;;;;;;;45.50;37.00;;;;;;;;5018950;28;51201;-58
2022/06/25 07:02:55;;;;;;;;;42.25;34.00;;;;;;;;5018426;28;51117;-58
2022/06/25 07:05:39;;;;;;;;;39.75;33.25;;;;;;;;5016155;28;51533;-58
2022/06/25 07:08:23;;;;;;;;;42.25;34.00;;;;;;;;5016316;28;51243;-58
2022/06/25 07:11:28;;;;;;;;;49.50;37.00;;;;;;;;5013286;28;51193;-58
2022/06/25 07:14:13;;;;;;;;;45.75;37.25;;;;;;;;5024672;28;51121;-56
2022/06/25 07:16:57;;;;;;;;;53.00;43.25;;;;;;;;5023769;28;51011;-57
2022/06/25 07:19:42;;;;;;;;;50.00;40.75;;;;;;;;5021404;28;51540;-58
2022/06/25 07:22:26;;;;;;;;;55.25;44.50;;;;;;;;5026792;28;51098;-56
2022/06/25 07:25:11;;;;;;;;;58.00;46.00;;;;;;;;5022792;28;51176;-58
2022/06/25 07:27:55;;;;;;;;;55.75;42.00;;;;;;;;5023974;28;51251;-59
2022/06/25 07:30:39;;;;;;;;;54.50;42.75;;;;;;;;5017197;28;51213;-58
2022/06/25 07:33:24;;;;;;;;;56.00;42.75;;;;;;;;5024797;28;51170;-59
2022/06/25 07:36:08;;;;;;;;;55.50;44.75;;;;;;;;5017677;28;51073;-58
2022/06/25 07:38:53;;;;;;;;;54.50;44.00;;;;;;;;5002801;28;51174;-58
2022/06/25 07:41:38;;;;;;;;;52.75;44.00;;;;;;;;5018828;28;51117;-58
2022/06/25 07:44:22;;;;;;;;;57.25;44.50;;;;;;;;5029122;28;51611;-58
2022/06/25 07:47:07;;;;;;;;;57.00;43.25;;;;;;;;5027543;28;51113;-57
2022/06/25 07:52:54;;;;;;;;;52.75;42.75;;;;;;;;5017281;28;51145;-59
2022/06/25 07:55:39;;;;;;;;;54.75;42.25;;;;;;;;5029600;28;51157;-58
2022/06/25 07:58:24;;;;;;;;;53.00;42.00;;;;;;;;5020072;28;51200;-58
2022/06/25 08:01:08;;;;;;;;;52.25;42.75;;;;;;;;5019438;28;51102;-59
2022/06/25 08:03:52;;;;;;;;;59.50;46.25;;;;;;;;5018436;28;51619;-58
2022/06/25 08:06:39;;;;;;;;;57.00;45.25;;;;;;;;5025906;28;51140;-58
2022/06/25 08:09:23;;;;;;;;;56.50;45.00;;;;;;;;5016850;28;51163;-58
2022/06/25 08:12:08;;;;;;;;;56.50;43.50;;;;;;;;5009725;28;51139;-58
2022/06/25 08:14:52;;;;;;;;;54.25;44.00;;;;;;;;5015462;28;51014;-58
2022/06/25 08:17:37;;;;;;;;;56.25;44.00;;;;;;;;5020864;28;51060;-58
2022/06/25 08:20:22;;;;;;;;;56.75;44.25;;;;;;;;5013561;28;51239;-58
2022/06/25 08:23:07;;;;;;;;;58.50;45.75;;;;;;;;5019267;28;51097;-59
2022/06/25 08:25:51;;;;;;;;;56.75;44.75;;;;;;;;5021532;28;51011;-58
2022/06/25 08:28:35;;;;;;;;;54.00;44.00;;;;;;;;5020245;28;51141;-57
2022/06/25 08:31:20;;;;;;;;;46.50;38.00;;;;;;;;5017672;28;51154;-58
2022/06/25 08:34:04;;;;;;;;;49.25;40.25;;;;;;;;5021335;28;51662;-58
2022/06/25 08:36:49;;;;;;;;;52.25;41.00;;;;;;;;5021182;28;51155;-58
2022/06/25 08:39:33;;;;;;;;;47.75;36.75;;;;;;;;5020807;28;51209;-59
2022/06/25 08:42:17;;;;;;;;;42.50;35.50;;;;;;;;5020997;28;51129;-58
2022/06/25 08:45:02;;;;;;;;;47.75;37.50;;;;;;;;5006176;28;51600;-57
2022/06/25 08:47:47;;;;;;;;;45.50;38.75;;;;;;;;5020319;28;51077;-58
2022/06/25 08:50:32;;;;;;;;;54.00;44.00;;;;;;;;5021013;28;51257;-55
2022/06/25 08:53:16;;;;;;;;;49.00;38.75;;;;;;;;5015466;28;51095;-58
2022/06/25 08:56:01;;;;;;;;;52.00;39.25;;;;;;;;5020408;28;51285;-58
2022/06/25 08:58:46;;;;;;;;;53.00;42.50;;;;;;;;5005561;28;51229;-58
2022/06/25 09:01:30;;;;;;;;;49.25;39.00;;;;;;;;5020887;28;51192;-58
2022/06/25 09:04:14;;;;;;;;;44.75;38.25;;;;;;;;5020619;28;51509;-58
2022/06/25 09:07:12;;;;;;;;;49.00;39.00;;;;;;;;5020231;28;51035;-57
2022/06/25 09:09:56;;;;;;;;;50.00;39.50;;;;;;;;5020357;28;51791;-56
2022/06/25 09:12:48;;;;;;;;;49.25;39.75;;;;;;;;5020161;28;51034;-59
2022/06/25 09:15:34;;;;;;;;;45.00;36.50;;;;;;;;5020582;28;51174;-58
2022/06/25 09:18:19;;;;;;;;;47.75;35.50;;;;;;;;5005119;28;51162;-58
2022/06/25 09:21:07;;;;;;;;;49.00;38.50;;;;;;;;5013880;28;51201;-58
2022/06/25 09:23:56;;;;;;;;;49.75;38.75;;;;;;;;5017146;28;51130;-58
2022/06/25 09:26:50;;;;;;;;;49.00;38.25;;;;;;;;5022599;28;51157;-58
2022/06/25 09:29:39;;;;;;;;;46.00;38.25;;;;;;;;5021468;28;51439;-59
2022/06/25 09:32:23;;;;;;;;;50.00;40.25;;;;;;;;5019593;28;51144;-58
2022/06/25 09:35:08;;;;;;;;;44.25;36.25;;;;;;;;5019142;28;51169;-57
2022/06/25 09:37:52;;;;;;;;;47.25;36.00;;;;;;;;5019307;28;51089;-57
2022/06/25 09:40:37;;;;;;;;;49.50;42.00;;;;;;;;5019506;28;51170;-58
2022/06/25 09:43:22;;;;;;;;;44.50;33.75;;;;;;;;5019078;28;51584;-59
2022/06/25 09:46:07;;;;;;;;;46.25;38.75;;;;;;;;5019154;28;51150;-58
2022/06/25 09:48:51;;;;;;;;;48.00;36.25;;;;;;;;5019462;28;51151;-59
2022/06/25 09:51:36;;;;;;;;;47.00;37.75;;;;;;;;5019093;28;51162;-59
2022/06/25 09:54:20;;;;;;;;;44.25;35.75;;;;;;;;5018808;28;51089;-57
2022/06/25 09:57:05;;;;;;;;;45.50;35.75;;;;;;;;5019461;28;51043;-59
2022/06/25 09:59:51;;;;;;;;;45.50;37.75;;;;;;;;5018211;28;51156;-58
2022/06/25 10:02:36;;;;;;;;;44.25;37.00;;;;;;;;5017903;28;51116;-59
2022/06/25 10:05:40;;;;;;;;;45.50;36.75;;;;;;;;5018298;28;51080;-58
2022/06/25 10:08:26;;;;;;;;;43.75;37.25;;;;;;;;5017832;28;51236;-58
2022/06/25 10:11:12;;;;;;;;;47.75;37.50;;;;;;;;5017897;28;51140;-58
2022/06/25 10:13:56;;;;;;;;;43.50;35.00;;;;;;;;5019545;28;51622;-58
2022/06/25 10:16:42;;;;;;;;;39.00;34.50;;;;;;;;5019460;28;51114;-58
2022/06/25 10:19:27;;;;;;;;;46.00;38.00;;;;;;;;5013679;28;51544;-58
2022/06/25 10:22:11;;;;;;;;;47.75;35.75;;;;;;;;5015629;28;51178;-58
2022/06/25 10:24:58;;;;;;;;;49.75;38.50;;;;;;;;5015153;28;51046;-58
2022/06/25 10:27:46;;;;;;;;;48.25;39.25;;;;;;;;5016620;28;51116;-58
2022/06/25 10:30:36;;;;;;;;;49.50;40.75;;;;;;;;5019108;28;51184;-58
2022/06/25 10:33:21;;;;;;;;;49.25;40.00;;;;;;;;5018369;28;51348;-58
2022/06/25 10:36:05;;;;;;;;;50.50;40.00;;;;;;;;5010450;28;51198;-58
2022/06/25 10:38:50;;;;;;;;;40.50;32.00;;;;;;;;5018470;28;51152;-58
2022/06/25 10:44:37;;;;;;;;;34.00;27.75;;;;;;;;5017222;28;50999;-57
2022/06/25 10:47:36;;;;;;;;;47.50;38.50;;;;;;;;5018455;28;51177;-58
2022/06/25 10:50:20;;;;;;;;;33.50;31.75;;;;;;;;5014416;28;51060;-58
2022/06/25 10:53:15;;;;;;;;;29.00;26.25;;;;;;;;5018255;28;51144;-57
2022/06/25 10:56:00;;;;;;;;;18.50;12.50;;;;;;;;5018641;28;51176;-58
2022/06/25 10:58:47;;;;;;;;;13.75;8.75;;;;;;;;5018156;28;51195;-58
2022/06/25 11:01:42;;;;;;;;;10.00;9.75;;;;;;;;5018832;28;51169;-54
2022/06/25 11:04:27;;;;;;;;;8.25;7.50;;;;;;;;5018545;28;51113;-55
2022/06/25 11:07:23;;;;;;;;;16.50;13.00;;;;;;;;5018631;28;51053;-54
2022/06/25 11:10:07;;;;;;;;;10.75;8.00;;;;;;;;5018104;28;50982;-58
2022/06/25 11:12:52;;;;;;;;;14.25;12.00;;;;;;;;5018491;28;51065;-59
2022/06/25 11:15:40;;;;;;;;;8.50;6.75;;;;;;;;5018269;28;51029;-58
2022/06/25 11:18:24;;;;;;;;;14.00;10.00;;;;;;;;5017981;28;51164;-58
2022/06/25 11:21:09;;;;;;;;;11.00;8.25;;;;;;;;5018415;28;51097;-58
2022/06/25 11:24:04;;;;;;;;;10.00;10.00;;;;;;;;5018182;28;51173;-59
2022/06/25 11:29:53;;;;;;;;;7.25;7.00;;;;;;;;5018172;28;51381;-58
2022/06/25 11:32:42;;;;;;;;;10.75;7.50;;;;;;;;5018137;28;51180;-58
2022/06/25 11:35:37;;;;;;;;;7.50;5.00;;;;;;;;5017127;28;51454;-58
2022/06/25 11:38:22;;;;;;;;;7.75;6.00;;;;;;;;5018027;28;51145;-58
2022/06/25 11:41:06;;;;;;;;;6.00;6.00;;;;;;;;5018085;28;51540;-58
2022/06/25 11:43:51;;;;;;;;;5.25;5.25;;;;;;;;5016516;28;51126;-58
2022/06/25 11:46:35;;;;;;;;;9.50;7.00;;;;;;;;5018416;28;51206;-57
2022/06/25 11:49:22;;;;;;;;;2.25;2.25;;;;;;;;5017944;28;51430;-58
2022/06/25 11:52:06;;;;;;;;;9.75;7.50;;;;;;;;5017764;28;51168;-57
2022/06/25 11:54:51;;;;;;;;;7.25;4.75;;;;;;;;5018436;28;51470;-57
2022/06/25 11:57:39;;;;;;;;;9.25;6.00;;;;;;;;5021428;28;51150;-57
2022/06/25 12:00:24;;;;;;;;;8.75;8.50;;;;;;;;5021742;28;51423;-57
2022/06/25 12:03:08;;;;;;;;;2.00;2.00;;;;;;;;5021943;28;51086;-58
2022/06/25 12:05:53;;;;;;;;;8.00;5.25;;;;;;;;5021857;28;51171;-58
2022/06/25 12:08:38;;;;;;;;;7.75;7.00;;;;;;;;5003995;28;51109;-59
2022/06/25 12:11:22;;;;;;;;;9.50;6.75;;;;;;;;5018997;28;51058;-58
2022/06/25 12:14:06;;;;;;;;;5.75;5.00;;;;;;;;5021356;28;51117;-57
2022/06/25 12:16:51;;;;;;;;;15.00;10.25;;;;;;;;5021205;28;51137;-58
2022/06/25 12:19:52;;;;;;;;;6.00;4.00;;;;;;;;5021552;28;51184;-58
2022/06/25 12:22:45;;;;;;;;;8.50;4.75;;;;;;;;5021664;28;50948;-58
2022/06/25 12:25:36;;;;;;;;;12.75;10.75;;;;;;;;5006069;28;51512;-58
2022/06/25 12:28:46;;;;;;;;;7.00;6.50;;;;;;;;5021338;28;51201;-58
2022/06/25 12:31:30;;;;;;;;;11.25;8.75;;;;;;;;5021803;28;51605;-57
2022/06/25 12:34:15;;;;;;;;;13.00;12.25;;;;;;;;5020915;28;51057;-58
2022/06/25 12:37:01;;;;;;;;;10.50;7.00;;;;;;;;5021100;28;51100;-58
2022/06/25 12:39:46;;;;;;;;;6.75;6.25;;;;;;;;5016887;28;51058;-57
2022/06/25 12:42:33;;;;;;;;;8.75;8.75;;;;;;;;5009849;28;51426;-58
2022/06/25 12:45:20;;;;;;;;;8.00;8.00;;;;;;;;5011315;28;51456;-58
2022/06/25 12:48:05;;;;;;;;;9.00;8.00;;;;;;;;5020273;28;51021;-56
2022/06/25 12:50:49;;;;;;;;;8.75;7.25;;;;;;;;5017245;28;51118;-59
2022/06/25 12:53:34;;;;;;;;;7.25;7.00;;;;;;;;5019974;28;51102;-57
2022/06/25 12:56:18;;;;;;;;;8.00;6.25;;;;;;;;5018950;28;51540;-57
2022/06/25 12:59:06;;;;;;;;;10.00;9.50;;;;;;;;5018709;28;51119;-58
2022/06/25 13:01:50;;;;;;;;;7.75;7.75;;;;;;;;5004025;28;51151;-58
2022/06/25 13:04:34;;;;;;;;;10.25;8.00;;;;;;;;5017619;28;51443;-58
2022/06/25 13:07:19;;;;;;;;;8.50;8.50;;;;;;;;5019732;28;51026;-58
2022/06/25 13:10:03;;;;;;;;;6.00;6.00;;;;;;;;5019533;28;51278;-59
2022/06/25 13:12:50;;;;;;;;;10.75;8.00;;;;;;;;5019467;28;50999;-58
2022/06/25 13:15:35;;;;;;;;;9.50;8.00;;;;;;;;5019563;28;51378;-58
2022/06/25 13:18:18;;;;;;;;;13.50;8.00;;;;;;;;5019504;28;51245;-59
2022/06/25 13:21:03;;;;;;;;;9.50;8.50;;;;;;;;5019365;28;51488;-58
2022/06/25 13:23:48;;;;;;;;;10.50;7.50;;;;;;;;5018692;28;51398;-58
2022/06/25 13:26:33;;;;;;;;;8.25;6.75;;;;;;;;5004740;28;51075;-57
2022/06/25 13:29:17;;;;;;;;;10.75;9.25;;;;;;;;5016559;28;51055;-58
2022/06/25 13:32:03;;;;;;;;;10.75;10.00;;;;;;;;5025715;28;51184;-57
2022/06/25 13:34:50;;;;;;;;;10.75;9.00;;;;;;;;5018490;28;51149;-58
2022/06/25 13:37:36;;;;;;;;;12.00;9.25;;;;;;;;5022444;28;51011;-58
2022/06/25 13:40:20;;;;;;;;;10.50;9.75;;;;;;;;5023848;28;51586;-58
2022/06/25 13:43:05;;;;;;;;;12.50;9.00;;;;;;;;5002510;28;51268;-58
2022/06/25 13:45:50;;;;;;;;;10.50;8.50;;;;;;;;5018767;28;51434;-58
2022/06/25 13:48:34;;;;;;;;;13.25;8.50;;;;;;;;5018368;28;51586;-57
2022/06/25 13:51:19;;;;;;;;;10.75;9.25;;;;;;;;5018522;28;51161;-58
2022/06/25 13:54:03;;;;;;;;;13.50;7.25;;;;;;;;5019460;28;51055;-57
2022/06/25 13:56:47;;;;;;;;;8.75;8.75;;;;;;;;5014519;28;51042;-57
2022/06/25 13:59:32;;;;;;;;;20.00;15.25;;;;;;;;5019081;28;51203;-59
2022/06/25 14:02:16;;;;;;;;;18.25;14.00;;;;;;;;5015683;28;51059;-58
2022/06/25 14:05:01;;;;;;;;;14.25;14.25;;;;;;;;5019443;28;51343;-58
2022/06/25 14:07:45;;;;;;;;;15.00;11.75;;;;;;;;5018921;28;51181;-57
2022/06/25 14:10:29;;;;;;;;;13.00;11.00;;;;;;;;5019437;28;51420;-58
2022/06/25 14:13:14;;;;;;;;;10.25;10.25;;;;;;;;5018900;28;51165;-58
2022/06/25 14:15:59;;;;;;;;;17.50;11.75;;;;;;;;5019512;28;51201;-57
2022/06/25 14:18:43;;;;;;;;;16.75;14.50;;;;;;;;5019020;28;51121;-58
2022/06/25 14:21:27;;;;;;;;;13.00;12.25;;;;;;;;5018891;28;51447;-57
2022/06/25 14:24:12;;;;;;;;;15.00;11.25;;;;;;;;5018291;28;51213;-57
2022/06/25 14:26:56;;;;;;;;;11.25;11.25;;;;;;;;5019156;28;51137;-58
2022/06/25 14:29:40;;;;;;;;;21.75;14.75;;;;;;;;5019259;28;51507;-57
2022/06/25 14:32:25;;;;;;;;;16.75;11.25;;;;;;;;5019132;28;51225;-58
2022/06/25 14:35:10;;;;;;;;;17.00;13.50;;;;;;;;5018762;28;51533;-57
2022/06/25 14:44:01;;;;;;;;;11.50;9.75;;;;;;;;5018117;28;51229;-57
2022/06/25 14:46:46;;;;;;;;;11.25;10.00;;;;;;;;5012712;28;51545;-58
2022/06/25 14:49:31;;;;;;;;;11.00;9.00;;;;;;;;5017663;28;51181;-58
2022/06/25 14:52:21;;;;;;;;;10.50;8.50;;;;;;;;5017891;28;51119;-59
2022/06/25 14:55:10;;;;;;;;;12.00;11.00;;;;;;;;5016950;28;51556;-57
2022/06/25 14:58:17;;;;;;;;;4.00;0.00;;;;;;;;5018926;28;51083;-58
2022/06/25 15:01:30;;;;;;;;;8.25;7.75;;;;;;;;5018874;28;51191;-58
2022/06/25 15:04:23;;;;;;;;;7.25;6.00;;;;;;;;5003702;28;51112;-57
2022/06/25 15:07:32;;;;;;;;;4.75;4.75;;;;;;;;5014478;28;51090;-58
2022/06/25 15:10:19;;;;;;;;;7.25;5.50;;;;;;;;5019096;28;51192;-55
2022/06/25 15:13:06;;;;;;;;;5.75;4.25;;;;;;;;5018868;28;51137;-57
2022/06/25 15:15:54;;;;;;;;;7.00;4.50;;;;;;;;5018432;28;51071;-57
2022/06/25 15:18:58;;;;;;;;;5.50;5.50;;;;;;;;5019074;28;51101;-56
2022/06/25 15:22:08;;;;;;;;;4.75;4.00;;;;;;;;5018347;28;51551;-56
2022/06/25 15:24:57;;;;;;;;;3.75;3.00;;;;;;;;5001055;28;51234;-57
2022/06/25 15:27:41;;;;;;;;;7.25;5.00;;;;;;;;5018563;28;51148;-57
2022/06/25 15:30:29;;;;;;;;;8.00;3.50;;;;;;;;5018678;28;51089;-58
2022/06/25 15:36:49;;;;;;;;;4.25;3.75;;;;;;;;5021849;28;51763;-58
2022/06/25 15:39:34;;;;;;;;;5.75;4.50;;;;;;;;5019669;28;51512;-58
2022/06/25 15:42:18;;;;;;;;;8.00;5.25;;;;;;;;5022537;28;51146;-58
2022/06/25 15:45:03;;;;;;;;;8.50;5.75;;;;;;;;5022405;28;51066;-57
2022/06/25 15:47:53;;;;;;;;;5.75;4.00;;;;;;;;5022149;28;51448;-58
2022/06/25 15:51:03;;;;;;;;;4.25;2.75;;;;;;;;5021652;28;51183;-57
2022/06/25 15:53:51;;;;;;;;;1.25;1.25;;;;;;;;5022186;28;51413;-58
2022/06/25 15:56:37;;;;;;;;;4.00;4.00;;;;;;;;5022045;28;51018;-55
2022/06/25 15:59:30;;;;;;;;;9.00;4.00;;;;;;;;5022346;28;51120;-57
2022/06/25 16:02:17;;;;;;;;;5.75;5.00;;;;;;;;5021902;28;51399;-56
2022/06/25 16:05:11;;;;;;;;;3.25;2.75;;;;;;;;5021828;28;51379;-59
2022/06/25 16:07:58;;;;;;;;;4.50;3.75;;;;;;;;5021380;28;51153;-58
2022/06/25 16:11:31;;;;;;;;;10.50;8.25;;;;;;;;5022252;28;51215;-56
2022/06/25 16:14:11;;;;;;;;;5.25;4.25;;;;;;;;5021158;28;51438;-58
2022/06/25 16:17:01;;;;;;;;;3.75;3.75;;;;;;;;5021672;28;51108;-57
2022/06/25 16:20:01;;;;;;;;;5.50;5.00;;;;;;;;5021935;28;50968;-57
2022/06/25 16:22:47;;;;;;;;;4.50;3.75;;;;;;;;5021138;28;51160;-57
2022/06/25 16:25:36;;;;;;;;;7.00;4.75;;;;;;;;5020132;28;51155;-58
2022/06/25 16:28:25;;;;;;;;;4.50;3.75;;;;;;;;5021113;28;51068;-57
2022/06/25 16:31:12;;;;;;;;;2.00;2.00;;;;;;;;5021477;28;51404;-57
2022/06/25 16:34:06;;;;;;;;;4.75;2.50;;;;;;;;5021174;28;51159;-57
2022/06/25 16:36:52;;;;;;;;;6.25;6.25;;;;;;;;5021785;28;51246;-58
2022/06/25 16:39:36;;;;;;;;;6.75;6.75;;;;;;;;5020949;28;51544;-55